Time;durP1;ratioP1;P1;durP2;ratioP2;P2;SDS_P1;SDS_P2;PMS_P1;PMS_P2;Temp;Humidity;BMP_temperature;BMP_pressure;BME280_temperature;BME280_humidity;BME280_pressure;Samples;Min_cycle;Max_cycle;Signal;HPM_P1;HPM_P2
2022/05/30 00:00:09;;;;;;;2.97;2.47;;;;;;;10.72;91.11;99786.97;4485908;31;20435;-67
2022/05/30 00:02:36;;;;;;;3.53;2.45;;;;;;;10.70;92.51;99780.84;4485787;31;20154;-66
2022/05/30 00:05:04;;;;;;;3.45;2.40;;;;;;;10.74;92.18;99781.63;4485924;31;20468;-66
2022/05/30 00:07:31;;;;;;;4.12;3.10;;;;;;;10.75;91.84;99784.25;4485767;31;20104;-67
2022/05/30 00:09:58;;;;;;;4.05;3.00;;;;;;;10.77;92.82;99785.06;4485882;31;20151;-67
2022/05/30 00:12:25;;;;;;;5.25;3.05;;;;;;;10.80;92.16;99785.91;4485657;31;20112;-67
2022/05/30 00:14:52;;;;;;;8.00;3.53;;;;;;;10.85;91.79;99782.28;4485741;31;20126;-67
2022/05/30 00:17:20;;;;;;;3.97;2.75;;;;;;;10.84;92.35;99771.75;4485835;31;20671;-67
2022/05/30 00:19:47;;;;;;;6.18;3.80;;;;;;;10.95;90.80;99770.63;4485750;31;20559;-66
2022/05/30 00:22:14;;;;;;;4.28;3.15;;;;;;;11.00;90.69;99774.03;4485597;31;20127;-66
2022/05/30 00:24:43;;;;;;;8.48;3.37;;;;;;;10.98;90.80;99770.53;4485665;31;20160;-66
2022/05/30 00:27:11;;;;;;;4.15;3.03;;;;;;;11.01;91.49;99770.47;4485710;31;20400;-67
2022/05/30 00:29:39;;;;;;;6.00;2.85;;;;;;;10.99;90.96;99769.66;4485593;31;20372;-67
2022/05/30 00:32:08;;;;;;;5.05;3.47;;;;;;;11.05;90.87;99760.72;4485696;31;20087;-67
2022/05/30 00:34:36;;;;;;;4.40;3.30;;;;;;;11.10;90.29;99764.13;4485581;31;20748;-67
2022/05/30 00:37:03;;;;;;;3.58;3.12;;;;;;;11.03;91.36;99759.03;4470944;31;20156;-67
2022/05/30 00:39:32;;;;;;;4.35;2.50;;;;;;;11.00;91.33;99744.16;4485100;31;20088;-67
2022/05/30 00:42:26;;;;;;;3.80;3.22;;;;;;;11.01;90.75;99746.75;4485480;31;20091;-67
2022/05/30 00:44:54;;;;;;;3.70;2.65;;;;;;;10.97;91.79;99752.13;4483377;31;20163;-67
2022/05/30 00:47:22;;;;;;;3.03;2.28;;;;;;;11.03;90.23;99745.88;4485355;31;20179;-66
2022/05/30 00:49:49;;;;;;;2.92;2.10;;;;;;;11.05;89.92;99744.03;4485594;31;20096;-67
2022/05/30 00:52:25;;;;;;;4.85;2.80;;;;;;;11.03;89.58;99741.47;4485344;31;20100;-67
2022/05/30 00:54:58;;;;;;;7.53;2.87;;;;;;;11.08;89.57;99739.56;4485498;31;20096;-67
2022/05/30 00:57:29;;;;;;;4.68;2.47;;;;;;;11.13;88.93;99742.97;4485412;31;20466;-67
2022/05/30 00:59:57;;;;;;;2.83;2.28;;;;;;;11.14;89.39;99735.91;4485353;31;20084;-67
2022/05/30 01:02:28;;;;;;;3.03;2.10;;;;;;;11.15;89.17;99740.28;4485449;31;20170;-67
2022/05/30 01:07:44;;;;;;;5.53;1.70;;;;;;;11.12;88.65;99735.06;4485548;31;20459;-66
2022/05/30 01:10:15;;;;;;;2.10;1.90;;;;;;;11.07;89.62;99745.75;4485121;31;20093;-67
2022/05/30 01:12:52;;;;;;;3.40;1.70;;;;;;;11.08;88.83;99741.34;4485053;31;20115;-67
2022/05/30 01:15:24;;;;;;;2.20;2.00;;;;;;;11.07;89.08;99739.59;4485079;31;20126;-67
2022/05/30 01:18:17;;;;;;;3.03;1.85;;;;;;;11.08;90.39;99738.69;4485280;31;20144;-67
2022/05/30 01:21:12;;;;;;;3.58;2.05;;;;;;;11.11;87.46;99725.44;4484921;31;20096;-67
2022/05/30 01:24:02;;;;;;;2.33;1.98;;;;;;;11.13;87.90;99719.25;4485033;31;20088;-67
2022/05/30 01:27:04;;;;;;;2.42;1.80;;;;;;;11.10;89.33;99731.63;4485197;31;20100;-67
2022/05/30 01:29:38;;;;;;;2.25;1.73;;;;;;;11.05;89.58;99729.09;4481105;31;20433;-67
2022/05/30 01:32:05;;;;;;;2.53;2.00;;;;;;;11.12;87.54;99719.25;4485119;31;20080;-67
2022/05/30 01:34:32;;;;;;;2.97;1.80;;;;;;;11.09;88.56;99721.97;4485037;31;20108;-67
2022/05/30 01:37:00;;;;;;;2.17;1.80;;;;;;;11.09;87.46;99711.41;4484906;31;20099;-67
2022/05/30 01:39:29;;;;;;;2.62;1.80;;;;;;;11.14;87.05;99715.69;4484922;31;20412;-67
2022/05/30 01:41:56;;;;;;;4.82;2.00;;;;;;;11.11;87.36;99718.41;4484901;31;20100;-67
2022/05/30 01:44:24;;;;;;;2.85;1.70;;;;;;;11.08;88.62;99718.47;4484879;31;20134;-67
2022/05/30 01:46:51;;;;;;;3.62;2.00;;;;;;;11.12;88.05;99713.97;4484727;31;20127;-67
2022/05/30 01:49:19;;;;;;;2.40;2.00;;;;;;;11.17;88.18;99707.72;4484627;31;20151;-67
2022/05/30 01:51:46;;;;;;;5.22;2.03;;;;;;;11.18;87.83;99703.28;4487030;31;20404;-67
2022/05/30 01:54:14;;;;;;;2.53;1.98;;;;;;;11.23;87.00;99706.66;4486971;31;20131;-67
2022/05/30 01:56:43;;;;;;;3.58;2.20;;;;;;;11.13;87.24;99708.69;4486871;31;20122;-67
2022/05/30 01:59:11;;;;;;;2.75;2.30;;;;;;;11.16;86.17;99707.72;4486907;31;20088;-67
2022/05/30 02:01:45;;;;;;;2.55;2.33;;;;;;;11.16;86.12;99711.22;4487136;31;20079;-66
2022/05/30 02:04:16;;;;;;;2.70;1.85;;;;;;;11.14;86.97;99709.56;4486545;31;20097;-67
2022/05/30 02:06:43;;;;;;;5.07;2.08;;;;;;;11.18;85.90;99706.78;4486607;31;20165;-67
2022/05/30 02:09:11;;;;;;;3.67;2.40;;;;;;;11.15;86.54;99706.88;4486869;31;20439;-67
2022/05/30 02:11:39;;;;;;;2.40;2.00;;;;;;;11.14;86.61;99713.06;4486715;31;20496;-67
2022/05/30 02:14:09;;;;;;;2.67;2.15;;;;;;;11.09;86.64;99709.66;4486839;31;20096;-67
2022/05/30 02:19:22;;;;;;;3.25;2.03;;;;;;;11.11;87.45;99722.81;4486724;31;20084;-66
2022/05/30 02:21:50;;;;;;;6.00;2.37;;;;;;;11.06;87.56;99719.41;4486763;31;20125;-67
2022/05/30 02:24:17;;;;;;;5.18;2.80;;;;;;;11.06;87.63;99724.66;4486455;31;20159;-67
2022/05/30 02:26:45;;;;;;;3.55;2.62;;;;;;;11.06;90.82;99724.66;4486666;31;20816;-67
2022/05/30 02:29:12;;;;;;;4.65;3.58;;;;;;;11.03;90.52;99733.53;4486407;31;20072;-67
2022/05/30 02:31:42;;;;;;;10.23;3.80;;;;;;;10.95;91.17;99736.38;4486640;31;20445;-67
2022/05/30 02:36:56;;;;;;;7.37;3.23;;;;;;;10.94;92.04;99736.38;4486697;31;20116;-67
2022/05/30 02:39:26;;;;;;;5.45;3.17;;;;;;;10.93;92.50;99740.78;4486471;31;20163;-67
2022/05/30 02:41:56;;;;;;;4.10;3.00;;;;;;;10.94;92.53;99739.88;4486674;31;20669;-67
2022/05/30 02:44:25;;;;;;;6.37;3.75;;;;;;;10.89;92.70;99739.12;4486559;31;20176;-67
2022/05/30 02:46:55;;;;;;;5.10;3.10;;;;;;;10.87;93.29;99740.94;4486555;31;20134;-67
2022/05/30 02:49:26;;;;;;;3.65;3.03;;;;;;;10.79;94.26;99748.16;4486440;31;20148;-67
2022/05/30 02:51:55;;;;;;;4.00;3.00;;;;;;;10.87;92.77;99746.19;4486451;31;20201;-67
2022/05/30 02:54:23;;;;;;;6.00;3.15;;;;;;;10.85;92.89;99750.66;4486324;31;20172;-67
2022/05/30 02:56:56;;;;;;;4.82;3.08;;;;;;;10.77;93.22;99750.81;4486554;31;20100;-67
2022/05/30 02:59:25;;;;;;;4.68;3.00;;;;;;;10.80;93.37;99754.28;4486541;31;20400;-67
2022/05/30 03:01:54;;;;;;;11.27;4.15;;;;;;;10.80;93.22;99763.06;4486330;31;20123;-67
2022/05/30 03:04:22;;;;;;;7.32;3.65;;;;;;;10.85;92.26;99766.47;4486386;31;20482;-66
2022/05/30 03:06:49;;;;;;;6.12;3.80;;;;;;;10.86;92.17;99767.34;4486182;31;20112;-67
2022/05/30 03:09:18;;;;;;;4.80;3.53;;;;;;;10.81;92.44;99767.41;4486389;31;20141;-67
2022/05/30 03:11:47;;;;;;;6.95;3.42;;;;;;;10.82;93.01;99763.03;4486496;31;20395;-67
2022/05/30 03:14:16;;;;;;;8.35;4.35;;;;;;;10.82;93.09;99766.53;4486265;31;20092;-67
2022/05/30 03:16:43;;;;;;;10.25;4.57;;;;;;;10.85;92.97;99766.47;4486292;31;20111;-66
2022/05/30 03:19:14;;;;;;;8.60;4.10;;;;;;;10.86;92.89;99770.84;4486321;31;20129;-67
2022/05/30 03:21:41;;;;;;;10.50;4.55;;;;;;;10.83;93.68;99767.41;4486257;31;20114;-67
2022/05/30 03:24:10;;;;;;;10.85;4.82;;;;;;;10.89;93.22;99777.81;4486317;31;20412;-67
2022/05/30 03:26:37;;;;;;;11.35;5.12;;;;;;;10.96;92.86;99777.63;4486255;31;20096;-67
2022/05/30 03:29:05;;;;;;;7.70;4.65;;;;;;;10.92;92.77;99775.97;4486105;31;20485;-67
2022/05/30 03:31:33;;;;;;;8.20;4.68;;;;;;;10.93;92.71;99782.97;4486223;31;20126;-67
2022/05/30 03:34:00;;;;;;;7.07;4.55;;;;;;;10.97;92.74;99778.50;4486157;31;20107;-67
2022/05/30 03:36:28;;;;;;;11.85;4.60;;;;;;;11.03;91.35;99775.72;4486079;31;20091;-67
2022/05/30 03:38:57;;;;;;;9.70;4.85;;;;;;;11.13;91.07;99779.00;4486353;31;20159;-67
2022/05/30 03:41:27;;;;;;;8.75;4.40;;;;;;;11.17;91.07;99776.25;4489939;31;20412;-67
2022/05/30 03:44:00;;;;;;;12.95;5.15;;;;;;;11.24;90.39;99776.97;4502326;31;20173;-67
2022/05/30 03:46:29;;;;;;;8.02;5.20;;;;;;;11.23;92.71;99777.88;4502486;31;20198;-67
2022/05/30 03:48:57;;;;;;;7.62;4.20;;;;;;;11.25;92.09;99778.72;4501881;31;20463;-67
2022/05/30 03:51:24;;;;;;;7.80;4.65;;;;;;;11.35;91.03;99777.59;4502542;31;20147;-67
2022/05/30 03:53:52;;;;;;;7.55;4.65;;;;;;;11.43;92.05;99783.53;4502565;31;20464;-67
2022/05/30 03:56:20;;;;;;;11.55;4.40;;;;;;;11.53;90.43;99778.91;4502462;31;20107;-67
2022/05/30 03:58:48;;;;;;;10.73;3.97;;;;;;;11.63;91.63;99771.63;4502020;31;20135;-67
2022/05/30 04:01:15;;;;;;;16.95;4.28;;;;;;;11.62;88.55;99772.50;4501978;31;20122;-67
2022/05/30 04:03:43;;;;;;;9.70;3.80;;;;;;;11.81;88.12;99773.75;4501953;31;20164;-67
2022/05/30 04:06:10;;;;;;;5.90;3.80;;;;;;;11.93;84.92;99788.44;4502465;31;20144;-67
2022/05/30 04:08:38;;;;;;;7.50;3.50;;;;;;;11.99;83.94;99783.00;4501861;31;20121;-67
2022/05/30 04:11:09;;;;;;;6.93;3.25;;;;;;;12.18;82.48;99770.13;4501761;31;20427;-67
2022/05/30 04:13:39;;;;;;;7.18;3.60;;;;;;;12.17;83.30;99768.41;4501109;31;20127;-67
2022/05/30 04:16:12;;;;;;;4.75;2.80;;;;;;;12.09;85.13;99767.78;4502091;31;20091;-67
2022/05/30 04:18:40;;;;;;;4.18;2.40;;;;;;;12.17;84.79;99776.34;4502403;31;20711;-67
2022/05/30 04:21:08;;;;;;;5.40;2.20;;;;;;;12.32;83.16;99785.59;4502316;31;20138;-67
2022/05/30 04:23:36;;;;;;;4.50;2.20;;;;;;;12.49;80.50;99796.53;4501779;31;20175;-67
2022/05/30 04:26:05;;;;;;;2.35;2.15;;;;;;;12.59;79.50;99795.37;4502068;31;20155;-67
2022/05/30 04:28:34;;;;;;;3.95;2.35;;;;;;;12.69;79.87;99801.25;4502605;31;20106;-67
2022/05/30 04:31:06;;;;;;;3.00;2.40;;;;;;;12.63;81.88;99799.66;4502166;31;20113;-67
2022/05/30 04:33:34;;;;;;;4.28;2.40;;;;;;;12.72;78.98;99801.16;4499473;31;20104;-67
2022/05/30 04:36:04;;;;;;;3.92;2.80;;;;;;;12.70;81.47;99807.41;4502450;31;20167;-67
2022/05/30 04:38:32;;;;;;;7.30;3.25;;;;;;;12.64;81.78;99806.66;4501614;31;20404;-67
2022/05/30 04:41:03;;;;;;;3.15;2.55;;;;;;;12.43;81.03;99804.63;4501456;31;20084;-67
2022/05/30 04:43:42;;;;;;;3.45;2.35;;;;;;;12.48;80.87;99807.16;4501319;31;20486;-67
2022/05/30 04:46:23;;;;;;;2.87;2.37;;;;;;;12.61;80.96;99808.53;4501137;31;20096;-67
2022/05/30 04:48:51;;;;;;;2.53;2.15;;;;;;;12.58;80.22;99819.19;4501441;31;20083;-66
2022/05/30 04:51:18;;;;;;;3.80;2.10;;;;;;;12.52;81.27;99808.81;4501238;31;20523;-67
2022/05/30 04:53:45;;;;;;;2.60;2.30;;;;;;;12.54;81.04;99806.97;4501014;31;20143;-67
2022/05/30 04:56:19;;;;;;;4.90;2.78;;;;;;;12.82;78.59;99817.59;4487239;31;20116;-67
2022/05/30 04:58:51;;;;;;;4.53;2.30;;;;;;;12.88;80.43;99823.56;4501302;31;20148;-66
2022/05/30 05:01:18;;;;;;;4.03;2.45;;;;;;;12.75;79.26;99808.13;4500975;31;20674;-67
2022/05/30 05:03:47;;;;;;;6.53;2.58;;;;;;;12.77;79.41;99814.25;4501324;31;20123;-66
2022/05/30 05:06:19;;;;;;;2.90;2.25;;;;;;;12.71;79.67;99827.63;4500749;31;20095;-66
2022/05/30 05:08:50;;;;;;;3.67;2.28;;;;;;;12.81;79.98;99832.59;4501076;31;20080;-67
2022/05/30 05:11:24;;;;;;;3.72;2.12;;;;;;;12.85;79.56;99834.22;4501107;31;20088;-67
2022/05/30 05:13:54;;;;;;;3.30;2.53;;;;;;;12.82;80.17;99825.53;4500522;31;20692;-67
2022/05/30 05:16:28;;;;;;;5.03;2.30;;;;;;;12.94;79.52;99826.97;4500157;31;20425;-67
2022/05/30 05:18:56;;;;;;;6.65;2.33;;;;;;;13.18;79.48;99825.31;4501028;31;20092;-67
2022/05/30 05:21:25;;;;;;;3.90;2.25;;;;;;;13.28;77.47;99829.44;4500237;31;20719;-67
2022/05/30 05:23:57;;;;;;;4.40;2.05;;;;;;;13.39;77.48;99841.41;4500158;31;20176;-66
2022/05/30 05:26:26;;;;;;;4.85;2.28;;;;;;;13.44;76.82;99840.41;4502512;31;20095;-67
2022/05/30 05:28:57;;;;;;;6.62;2.58;;;;;;;13.56;76.79;99851.44;4502676;31;20080;-67
2022/05/30 05:31:33;;;;;;;3.42;2.45;;;;;;;13.76;78.54;99847.28;4501956;31;20083;-67
2022/05/30 05:34:07;;;;;;;6.10;2.70;;;;;;;13.72;76.75;99854.47;4502951;31;20487;-67
2022/05/30 05:36:41;;;;;;;5.25;2.62;;;;;;;13.96;74.62;99858.06;4502831;31;20199;-67
2022/05/30 05:39:09;;;;;;;3.20;2.42;;;;;;;14.00;75.07;99858.84;4502207;31;20076;-67
2022/05/30 05:41:39;;;;;;;5.53;2.37;;;;;;;14.06;76.15;99864.78;4502693;31;20103;-66
2022/05/30 05:44:08;;;;;;;5.50;2.60;;;;;;;14.00;76.53;99859.69;4502812;31;20152;-67
2022/05/30 05:46:36;;;;;;;6.85;2.42;;;;;;;14.11;76.46;99856.69;4502193;31;20159;-67
2022/05/30 05:49:06;;;;;;;5.37;2.78;;;;;;;14.23;74.25;99863.31;4502543;31;20126;-67
2022/05/30 05:51:37;;;;;;;3.92;2.40;;;;;;;14.27;73.23;99864.94;4501787;31;20465;-67
2022/05/30 05:54:05;;;;;;;6.62;2.45;;;;;;;14.39;72.88;99869.81;4498251;31;20175;-66
2022/05/30 05:56:33;;;;;;;7.35;2.80;;;;;;;14.04;74.20;99877.22;4496264;31;20191;-66
2022/05/30 05:59:02;;;;;;;4.68;2.37;;;;;;;14.34;73.60;99877.91;4502420;31;20536;-66
2022/05/30 06:01:32;;;;;;;7.80;2.67;;;;;;;14.68;72.87;99886.50;4502235;31;20167;-67
2022/05/30 06:04:05;;;;;;;6.07;2.12;;;;;;;14.73;71.62;99882.72;4502329;31;20499;-66
2022/05/30 06:06:35;;;;;;;3.50;2.40;;;;;;;14.76;71.14;99885.28;4502463;31;20152;-67
2022/05/30 06:09:06;;;;;;;8.98;2.40;;;;;;;14.73;69.60;99893.34;4502245;31;20106;-67
2022/05/30 06:11:35;;;;;;;4.30;2.50;;;;;;;14.80;70.88;99883.38;4502235;31;20557;-67
2022/05/30 06:14:03;;;;;;;6.22;2.30;;;;;;;14.83;70.70;99889.44;4502516;31;20114;-67
2022/05/30 06:16:37;;;;;;;5.68;1.87;;;;;;;15.06;68.88;99882.41;4502234;31;20079;-67
2022/05/30 06:19:05;;;;;;;3.58;1.87;;;;;;;14.93;69.33;99881.13;4502308;31;20102;-67
2022/05/30 06:21:33;;;;;;;2.33;2.05;;;;;;;15.10;67.24;99889.31;4501996;31;20095;-67
2022/05/30 06:24:01;;;;;;;3.78;1.90;;;;;;;14.82;69.99;99890.34;4498139;31;20087;-66
2022/05/30 06:26:36;;;;;;;3.95;1.87;;;;;;;14.78;69.17;99893.19;4497699;31;20496;-66
2022/05/30 06:29:04;;;;;;;5.40;1.65;;;;;;;14.87;69.07;99890.19;4502327;31;20084;-66
2022/05/30 06:31:33;;;;;;;5.25;2.30;;;;;;;14.92;70.18;99888.22;4501971;31;20118;-66
2022/05/30 06:34:04;;;;;;;2.47;1.90;;;;;;;14.98;68.38;99889.78;4502055;31;20162;-67
2022/05/30 06:36:33;;;;;;;4.18;1.98;;;;;;;14.95;65.91;99904.03;4501972;31;20125;-67
2022/05/30 06:39:00;;;;;;;12.77;2.67;;;;;;;15.05;64.50;99904.53;4502213;31;20504;-67
2022/05/30 06:41:31;;;;;;;2.60;2.00;;;;;;;15.09;65.58;99900.88;4502410;31;20446;-67
2022/05/30 06:44:04;;;;;;;5.10;2.28;;;;;;;15.16;65.74;99912.97;4502553;31;20080;-66
2022/05/30 06:46:42;;;;;;;4.32;1.92;;;;;;;14.85;68.37;99918.56;4501922;31;20107;-67
2022/05/30 06:49:15;;;;;;;6.50;2.35;;;;;;;14.94;67.42;99912.03;4502200;31;20431;-67
2022/05/30 06:51:44;;;;;;;3.65;1.87;;;;;;;14.93;66.85;99919.13;4502528;31;20159;-66
2022/05/30 06:54:11;;;;;;;2.70;2.00;;;;;;;15.03;66.76;99911.69;4501969;31;20144;-66
2022/05/30 06:59:30;;;;;;;6.93;1.87;;;;;;;15.55;65.76;99912.34;4501998;31;20171;-66
2022/05/30 07:02:00;;;;;;;5.32;2.00;;;;;;;15.65;63.46;99904.84;4502211;31;20447;-63
2022/05/30 07:04:42;;;;;;;2.28;1.87;;;;;;;15.77;63.59;99915.03;4501940;31;20092;-64
2022/05/30 07:07:11;;;;;;;6.20;2.08;;;;;;;15.77;62.76;99902.59;4501836;31;20454;-63
2022/05/30 07:09:40;;;;;;;2.37;1.80;;;;;;;16.00;63.34;99898.12;4501958;31;20447;-64
2022/05/30 07:12:09;;;;;;;7.40;1.95;;;;;;;16.51;61.22;99906.59;4502146;31;20100;-64
2022/05/30 07:14:38;;;;;;;3.12;1.87;;;;;;;16.60;61.26;99909.69;4501897;31;20179;-64
2022/05/30 07:17:10;;;;;;;4.55;2.30;;;;;;;16.68;58.55;99904.94;4502001;31;20104;-64
2022/05/30 07:19:37;;;;;;;3.60;1.70;;;;;;;16.81;59.21;99905.25;4502568;31;20114;-64
2022/05/30 07:22:04;;;;;;;3.42;1.90;;;;;;;16.79;58.42;99900.97;4502331;31;20084;-64
2022/05/30 07:24:37;;;;;;;4.85;1.85;;;;;;;16.77;60.37;99902.81;4502579;31;20126;-64
2022/05/30 07:27:16;;;;;;;4.40;2.00;;;;;;;16.78;60.12;99894.75;4502156;31;20103;-64
2022/05/30 07:29:55;;;;;;;11.10;1.75;;;;;;;16.98;60.11;99890.31;4501809;31;20080;-64
2022/05/30 07:32:34;;;;;;;3.90;2.00;;;;;;;17.50;58.69;99890.53;4502723;31;20091;-64
2022/05/30 07:35:17;;;;;;;5.03;1.92;;;;;;;18.04;56.13;99897.62;4501691;31;20164;-64
2022/05/30 07:37:50;;;;;;;3.75;1.65;;;;;;;18.26;56.61;99897.41;4502230;31;20126;-64
2022/05/30 07:40:18;;;;;;;3.17;1.83;;;;;;;18.27;51.93;99898.25;4501231;31;20083;-64
2022/05/30 07:42:48;;;;;;;1.98;1.50;;;;;;;18.01;52.38;99905.78;4500024;31;20111;-64
2022/05/30 07:45:16;;;;;;;5.07;1.37;;;;;;;17.82;52.03;99904.97;4500550;31;20099;-64
2022/05/30 07:47:43;;;;;;;2.15;1.48;;;;;;;18.07;52.04;99912.63;4498386;31;20384;-64
2022/05/30 07:50:12;;;;;;;2.92;1.30;;;;;;;18.37;51.56;99899.50;4498809;31;20160;-64
2022/05/30 07:52:40;;;;;;;3.10;1.40;;;;;;;18.78;50.06;99901.84;4499924;31;20117;-64
2022/05/30 07:55:08;;;;;;;2.72;1.10;;;;;;;18.90;49.22;99906.53;4500494;31;20100;-64
2022/05/30 07:57:56;;;;;;;3.97;1.50;;;;;;;19.09;47.87;99901.91;4501326;31;20773;-64
2022/05/30 08:00:29;;;;;;;8.45;1.40;;;;;;;19.22;48.02;99894.09;4499058;31;20142;-64
2022/05/30 08:02:57;;;;;;;3.17;1.20;;;;;;;18.84;49.46;99906.88;4499359;31;20389;-64
2022/05/30 08:05:25;;;;;;;4.53;1.30;;;;;;;19.25;48.65;99903.75;4499590;31;20164;-64
2022/05/30 08:07:56;;;;;;;2.10;1.35;;;;;;;19.26;48.18;99905.47;4500091;31;20156;-64
2022/05/30 08:10:26;;;;;;;1.92;1.20;;;;;;;18.95;47.74;99914.31;4499967;31;20087;-64
2022/05/30 08:12:55;;;;;;;2.17;1.23;;;;;;;18.87;48.50;99912.91;4500995;31;20160;-64
2022/05/30 08:15:22;;;;;;;10.32;1.10;;;;;;;18.70;47.34;99914.72;4500868;31;20504;-64
2022/05/30 08:17:55;;;;;;;8.45;1.33;;;;;;;18.82;48.98;99912.28;4501059;31;20129;-64
2022/05/30 08:20:26;;;;;;;1.23;1.00;;;;;;;18.69;47.61;99920.97;4501283;31;20083;-64
2022/05/30 08:22:54;;;;;;;5.30;1.40;;;;;;;18.48;47.40;99920.28;4501559;31;20436;-64
2022/05/30 08:25:21;;;;;;;1.25;1.15;;;;;;;18.64;47.79;99924.75;4501597;31;20091;-64
2022/05/30 08:27:49;;;;;;;3.67;1.20;;;;;;;18.92;48.80;99925.16;4501691;31;20176;-64
2022/05/30 08:30:19;;;;;;;8.80;1.33;;;;;;;19.29;47.02;99929.31;4501393;31;20084;-64
2022/05/30 08:32:48;;;;;;;1.73;1.23;;;;;;;19.37;47.02;99942.28;4501399;31;20154;-64
2022/05/30 08:35:23;;;;;;;2.75;1.27;;;;;;;19.08;47.12;99934.91;4501484;31;20088;-64
2022/05/30 08:37:56;;;;;;;1.40;1.12;;;;;;;19.40;47.01;99929.62;4501455;31;20152;-64
2022/05/30 08:43:15;;;;;;;3.30;1.42;;;;;;;20.03;44.36;99926.91;4501305;31;20130;-64
2022/05/30 08:45:46;;;;;;;4.28;1.50;;;;;;;20.36;43.33;99901.81;4501110;31;20498;-64
2022/05/30 08:48:22;;;;;;;1.90;1.25;;;;;;;20.57;43.82;99906.88;4501653;31;20133;-65
2022/05/30 08:51:16;;;;;;;4.85;1.60;;;;;;;20.38;42.47;99902.56;4499660;31;20469;-65
2022/05/30 08:53:57;;;;;;;5.32;1.45;;;;;;;20.18;43.33;99908.28;4499877;31;20099;-65
2022/05/30 08:56:33;;;;;;;2.50;1.40;;;;;;;20.48;43.86;99909.09;4500979;31;20088;-65
2022/05/30 08:59:25;;;;;;;5.70;1.40;;;;;;;19.61;43.15;99930.22;4500485;31;20099;-64
2022/05/30 09:01:59;;;;;;;4.07;1.60;;;;;;;19.25;44.06;99930.44;4499690;31;20109;-64
2022/05/30 09:04:33;;;;;;;3.10;1.20;;;;;;;19.80;44.13;99935.41;4499603;31;20514;-64
2022/05/30 09:07:05;;;;;;;2.10;0.88;;;;;;;20.20;43.53;99935.78;4499310;31;20095;-64
2022/05/30 09:10:04;;;;;;;6.00;1.20;;;;;;;20.30;44.23;99934.28;4499971;31;20160;-65
2022/05/30 09:12:34;;;;;;;1.62;1.08;;;;;;;21.12;41.14;99928.38;4500028;31;20087;-65
2022/05/30 09:15:08;;;;;;;2.97;1.20;;;;;;;21.11;40.07;99931.19;4500191;31;20117;-65
2022/05/30 09:17:42;;;;;;;2.03;1.10;;;;;;;21.03;40.62;99941.53;4500596;31;20110;-65
2022/05/30 09:20:14;;;;;;;2.53;1.40;;;;;;;20.96;40.53;99935.69;4500528;31;20123;-64
2022/05/30 09:22:43;;;;;;;1.30;1.00;;;;;;;21.47;40.55;99934.22;4501106;31;20163;-65
2022/05/30 09:28:34;;;;;;;1.73;1.12;;;;;;;21.07;41.67;99937.69;4500456;31;20186;-65
2022/05/30 09:31:20;;;;;;;1.33;0.90;;;;;;;21.08;40.23;99937.59;4500602;31;20088;-65
2022/05/30 09:33:57;;;;;;;4.62;0.95;;;;;;;20.88;41.43;99933.44;4500767;31;20151;-65
2022/05/30 09:36:31;;;;;;;1.42;0.93;;;;;;;20.25;42.21;99936.38;4500677;31;20129;-65
2022/05/30 09:38:59;;;;;;;1.02;0.90;;;;;;;21.00;40.31;99940.75;4500042;31;20114;-65
2022/05/30 09:41:37;;;;;;;1.67;1.52;;;;;;;21.35;40.63;99935.03;4500655;31;20100;-65
2022/05/30 09:44:17;;;;;;;2.90;1.50;;;;;;;21.00;39.97;99926.50;4500329;31;20071;-65
2022/05/30 09:46:52;;;;;;;4.62;1.62;;;;;;;21.45;41.24;99938.84;4493865;31;20076;-65
2022/05/30 09:49:24;;;;;;;2.05;1.20;;;;;;;21.73;39.09;99942.41;4493616;31;20595;-65
2022/05/30 09:52:00;;;;;;;1.52;0.90;;;;;;;21.44;40.19;99942.47;4492194;31;20479;-65
2022/05/30 09:54:31;;;;;;;0.90;0.88;;;;;;;21.69;40.04;99951.59;4490546;31;20096;-65
2022/05/30 09:57:28;;;;;;;3.10;0.95;;;;;;;21.08;40.46;99942.94;4488838;31;20117;-65
2022/05/30 10:00:17;;;;;;;2.12;1.15;;;;;;;21.56;39.58;99950.69;4490189;31;20133;-64
2022/05/30 10:02:57;;;;;;;7.78;1.87;;;;;;;20.77;41.08;99944.81;4470411;31;20245;-65
2022/05/30 10:05:27;;;;;;;4.80;1.42;;;;;;;21.32;40.28;99950.41;4489963;31;20084;-65
2022/05/30 10:08:06;;;;;;;5.53;1.20;;;;;;;21.45;39.47;99962.09;4487291;31;20159;-65
2022/05/30 10:10:47;;;;;;;3.80;1.20;;;;;;;20.96;40.93;99955.28;4488202;31;20108;-65
2022/05/30 10:13:33;;;;;;;4.28;1.20;;;;;;;21.38;40.30;99950.91;4493831;31;20092;-64
2022/05/30 10:16:14;;;;;;;3.58;1.42;;;;;;;21.72;39.87;99954.09;4499472;31;20084;-65
2022/05/30 10:18:54;;;;;;;4.32;1.30;;;;;;;22.04;39.12;99953.81;4502910;31;20429;-64
2022/05/30 10:28:14;;;;;;;2.85;1.20;;;;;;;22.52;38.01;99952.38;4502640;31;20122;-65
2022/05/30 10:28:25;;;;;;;4.07;1.13;;;;;;;21.80;38.92;99961.63;4479883;31;20384;-64
2022/05/30 10:31:07;;;;;;;5.97;1.37;;;;;;;22.01;38.37;99962.91;4494197;31;20095;-65
2022/05/30 10:33:43;;;;;;;1.73;1.27;;;;;;;22.38;37.90;99957.81;4490782;31;20120;-64
2022/05/30 10:36:56;;;;;;;1.58;1.00;;;;;;;21.33;39.35;99960.16;4487547;31;20103;-65
2022/05/30 10:39:48;;;;;;;3.30;1.33;;;;;;;20.35;41.02;99966.97;4456992;31;20368;-66
2022/05/30 10:42:34;;;;;;;3.72;1.45;;;;;;;20.25;41.61;99972.00;4488464;31;20498;-66
2022/05/30 10:45:11;;;;;;;1.10;1.00;;;;;;;20.12;41.65;99967.47;4497705;31;20107;-65
2022/05/30 10:47:45;;;;;;;3.25;1.00;;;;;;;20.46;41.86;99964.53;4503032;31;20124;-65
2022/05/30 10:50:21;;;;;;;5.20;1.20;;;;;;;20.49;40.74;99967.03;4502784;31;20113;-65
2022/05/30 10:53:05;;;;;;;5.75;1.20;;;;;;;20.69;40.44;99979.25;4491452;31;20114;-65
2022/05/30 10:55:38;;;;;;;7.72;1.10;;;;;;;20.41;41.52;99971.09;4487056;31;20100;-64
2022/05/30 10:58:23;;;;;;;7.00;2.42;;;;;;;20.55;41.06;99973.00;4486470;31;20171;-64
2022/05/30 11:00:55;;;;;;;3.85;1.25;;;;;;;20.77;41.10;99968.06;4486666;31;20176;-64
2022/05/30 11:03:32;;;;;;;5.10;1.37;;;;;;;21.13;40.52;99972.13;4486577;31;20110;-64
2022/05/30 11:06:20;;;;;;;2.95;1.23;;;;;;;21.56;39.85;99969.47;4485079;31;20127;-64
2022/05/30 11:09:10;;;;;;;4.15;1.30;;;;;;;21.67;39.08;99980.34;4485931;31;20096;-64
2022/05/30 11:11:50;;;;;;;3.12;1.30;;;;;;;21.36;39.85;99984.13;4487226;31;20451;-64
2022/05/30 11:14:31;;;;;;;4.55;1.30;;;;;;;20.72;40.80;99995.13;4496297;31;20072;-64
2022/05/30 11:17:17;;;;;;;2.17;1.05;;;;;;;20.33;42.10;100001.00;4496166;31;20155;-64
2022/05/30 11:20:15;;;;;;;6.03;1.35;;;;;;;19.70;42.03;99998.38;4500402;31;20433;-64
2022/05/30 11:22:46;;;;;;;2.30;0.98;;;;;;;18.91;44.06;100014.19;4500014;31;20099;-64
2022/05/30 11:25:16;;;;;;;4.47;0.93;;;;;;;18.79;44.60;100005.84;4502255;31;20166;-64
2022/05/30 11:28:09;;;;;;;3.55;1.10;;;;;;;18.97;45.24;100014.72;4501744;31;20088;-64
2022/05/30 11:30:55;;;;;;;4.20;0.95;;;;;;;18.96;44.19;100007.66;4499541;31;20470;-63
2022/05/30 11:33:22;;;;;;;1.10;1.10;;;;;;;19.00;44.23;100003.88;4499231;31;20119;-63
2022/05/30 11:36:15;;;;;;;2.95;1.08;;;;;;;19.13;44.27;100008.59;4490342;31;20129;-64
2022/05/30 11:39:01;;;;;;;11.48;1.33;;;;;;;18.62;44.11;100009.38;4483107;31;20478;-64
2022/05/30 11:41:43;;;;;;;1.62;1.15;;;;;;;18.89;44.51;99998.25;4483969;31;20479;-63
2022/05/30 11:44:15;;;;;;;5.62;1.73;;;;;;;19.08;43.86;100004.34;4485975;31;20110;-64
2022/05/30 11:46:52;;;;;;;8.82;1.45;;;;;;;19.32;43.99;99993.28;4484493;31;20107;-64
2022/05/30 11:49:22;;;;;;;1.87;1.15;;;;;;;19.95;42.76;99993.34;4484868;31;20438;-64
2022/05/30 11:52:07;;;;;;;1.40;1.10;;;;;;;20.39;41.83;99991.72;4499426;31;20099;-64
2022/05/30 11:54:48;;;;;;;1.83;1.10;;;;;;;21.11;39.65;99998.16;4499494;31;20426;-65
2022/05/30 11:57:29;;;;;;;5.00;0.98;;;;;;;21.43;39.58;99989.00;4499742;31;20831;-64
2022/05/30 12:00:37;;;;;;;3.30;1.10;;;;;;;21.64;38.58;99996.62;4499701;31;20099;-65
2022/05/30 12:03:04;;;;;;;;;;;;;;;21.58;38.55;99994.34;4484170;31;20163;-65
2022/05/30 12:05:43;;;;;;;2.25;1.10;;;;;;;21.07;39.23;99996.62;4501679;31;20001;-65
2022/05/30 12:08:31;;;;;;;1.02;0.75;;;;;;;20.52;40.11;100003.47;4499947;31;20152;-65
2022/05/30 12:11:07;;;;;;;3.72;1.40;;;;;;;20.20;41.43;99997.31;4499833;31;20177;-66
2022/05/30 12:14:03;;;;;;;3.20;1.20;;;;;;;19.81;42.10;100004.81;4483166;31;82037;-65
2022/05/30 12:16:41;;;;;;;2.45;1.27;;;;;;;19.39;43.80;100000.00;4499681;31;20160;-65
2022/05/30 12:25:01;;;;;;;1.87;1.30;;;;;;;19.84;42.42;99997.59;4493374;31;20479;-64